sensor_id;sensor_type;location;lat;lon;timestamp;P1;durP1;ratioP1;P2;durP2;ratioP2
19087;SDS011;9676;50.916;13.352;2023-04-30T00:00:05;14.50;;;13.00;;
19087;SDS011;9676;50.916;13.352;2023-04-30T00:02:57;14.00;;;12.70;;
19087;SDS011;9676;50.916;13.352;2023-04-30T00:05:48;14.20;;;12.80;;
19087;SDS011;9676;50.916;13.352;2023-04-30T00:08:40;14.90;;;13.40;;
19087;SDS011;9676;50.916;13.352;2023-04-30T00:11:29;14.70;;;13.30;;
19087;SDS011;9676;50.916;13.352;2023-04-30T00:14:18;14.57;;;13.07;;
19087;SDS011;9676;50.916;13.352;2023-04-30T00:17:08;14.97;;;13.30;;
19087;SDS011;9676;50.916;13.352;2023-04-30T00:19:57;14.23;;;12.83;;
19087;SDS011;9676;50.916;13.352;2023-04-30T00:22:47;13.73;;;12.40;;
19087;SDS011;9676;50.916;13.352;2023-04-30T00:25:38;14.23;;;12.73;;
19087;SDS011;9676;50.916;13.352;2023-04-30T00:28:27;15.83;;;14.13;;
19087;SDS011;9676;50.916;13.352;2023-04-30T00:31:17;15.07;;;13.20;;
19087;SDS011;9676;50.916;13.352;2023-04-30T00:34:06;14.87;;;13.37;;
19087;SDS011;9676;50.916;13.352;2023-04-30T00:36:55;14.10;;;12.80;;
19087;SDS011;9676;50.916;13.352;2023-04-30T00:39:45;14.50;;;13.00;;
19087;SDS011;9676;50.916;13.352;2023-04-30T00:42:35;13.90;;;12.50;;
19087;SDS011;9676;50.916;13.352;2023-04-30T00:45:25;15.93;;;13.17;;
19087;SDS011;9676;50.916;13.352;2023-04-30T00:48:14;14.80;;;13.30;;
19087;SDS011;9676;50.916;13.352;2023-04-30T00:51:04;14.27;;;12.80;;
19087;SDS011;9676;50.916;13.352;2023-04-30T00:53:54;14.50;;;13.20;;
19087;SDS011;9676;50.916;13.352;2023-04-30T00:56:44;14.47;;;12.97;;
19087;SDS011;9676;50.916;13.352;2023-04-30T00:59:35;14.00;;;12.70;;
19087;SDS011;9676;50.916;13.352;2023-04-30T01:02:24;14.00;;;12.70;;
19087;SDS011;9676;50.916;13.352;2023-04-30T01:05:14;14.83;;;12.90;;
19087;SDS011;9676;50.916;13.352;2023-04-30T01:08:03;13.70;;;12.30;;
19087;SDS011;9676;50.916;13.352;2023-04-30T01:11:00;14.40;;;13.00;;
19087;SDS011;9676;50.916;13.352;2023-04-30T01:14:02;14.27;;;12.87;;
19087;SDS011;9676;50.916;13.352;2023-04-30T01:17:02;14.17;;;12.77;;
19087;SDS011;9676;50.916;13.352;2023-04-30T01:19:56;13.17;;;11.87;;
19087;SDS011;9676;50.916;13.352;2023-04-30T01:22:49;14.07;;;12.67;;
19087;SDS011;9676;50.916;13.352;2023-04-30T01:25:45;14.07;;;12.67;;
19087;SDS011;9676;50.916;13.352;2023-04-30T01:28:51;14.13;;;12.70;;
19087;SDS011;9676;50.916;13.352;2023-04-30T01:31:42;13.20;;;11.90;;
19087;SDS011;9676;50.916;13.352;2023-04-30T01:34:32;13.50;;;12.10;;
19087;SDS011;9676;50.916;13.352;2023-04-30T01:37:23;13.50;;;12.30;;
19087;SDS011;9676;50.916;13.352;2023-04-30T01:40:22;14.43;;;12.80;;
19087;SDS011;9676;50.916;13.352;2023-04-30T01:43:17;13.10;;;11.80;;
19087;SDS011;9676;50.916;13.352;2023-04-30T01:46:17;13.67;;;12.27;;
19087;SDS011;9676;50.916;13.352;2023-04-30T01:49:14;13.20;;;11.87;;
19087;SDS011;9676;50.916;13.352;2023-04-30T01:52:16;12.70;;;11.50;;
19087;SDS011;9676;50.916;13.352;2023-04-30T01:55:13;13.40;;;12.10;;
19087;SDS011;9676;50.916;13.352;2023-04-30T01:58:08;13.27;;;12.03;;
19087;SDS011;9676;50.916;13.352;2023-04-30T02:01:00;12.70;;;11.50;;
19087;SDS011;9676;50.916;13.352;2023-04-30T02:03:51;17.00;;;11.80;;
19087;SDS011;9676;50.916;13.352;2023-04-30T02:06:41;12.70;;;11.60;;
19087;SDS011;9676;50.916;13.352;2023-04-30T02:09:30;12.60;;;11.40;;
19087;SDS011;9676;50.916;13.352;2023-04-30T02:12:19;12.07;;;10.97;;
19087;SDS011;9676;50.916;13.352;2023-04-30T02:15:09;12.47;;;11.27;;
19087;SDS011;9676;50.916;13.352;2023-04-30T02:18:00;12.43;;;11.33;;
19087;SDS011;9676;50.916;13.352;2023-04-30T02:20:51;12.43;;;11.13;;
19087;SDS011;9676;50.916;13.352;2023-04-30T02:23:42;11.97;;;10.77;;
19087;SDS011;9676;50.916;13.352;2023-04-30T02:26:31;12.30;;;11.10;;
19087;SDS011;9676;50.916;13.352;2023-04-30T02:29:20;12.57;;;11.27;;
19087;SDS011;9676;50.916;13.352;2023-04-30T02:32:10;12.93;;;11.60;;
19087;SDS011;9676;50.916;13.352;2023-04-30T02:34:59;12.30;;;11.20;;
19087;SDS011;9676;50.916;13.352;2023-04-30T02:37:50;12.23;;;11.03;;
19087;SDS011;9676;50.916;13.352;2023-04-30T02:40:40;12.37;;;11.17;;
19087;SDS011;9676;50.916;13.352;2023-04-30T02:43:29;12.20;;;11.10;;
19087;SDS011;9676;50.916;13.352;2023-04-30T02:46:19;12.20;;;11.10;;
19087;SDS011;9676;50.916;13.352;2023-04-30T02:49:09;12.20;;;11.10;;
19087;SDS011;9676;50.916;13.352;2023-04-30T02:51:58;12.40;;;11.27;;
19087;SDS011;9676;50.916;13.352;2023-04-30T02:54:49;12.43;;;11.20;;
19087;SDS011;9676;50.916;13.352;2023-04-30T02:57:38;12.13;;;10.93;;
19087;SDS011;9676;50.916;13.352;2023-04-30T03:00:28;12.13;;;10.93;;
19087;SDS011;9676;50.916;13.352;2023-04-30T03:03:17;11.40;;;10.40;;
19087;SDS011;9676;50.916;13.352;2023-04-30T03:06:07;11.87;;;10.77;;
19087;SDS011;9676;50.916;13.352;2023-04-30T03:08:56;12.10;;;10.90;;
19087;SDS011;9676;50.916;13.352;2023-04-30T03:11:48;11.67;;;10.57;;
19087;SDS011;9676;50.916;13.352;2023-04-30T03:14:37;11.57;;;10.57;;
19087;SDS011;9676;50.916;13.352;2023-04-30T03:17:27;12.10;;;10.80;;
19087;SDS011;9676;50.916;13.352;2023-04-30T03:20:16;11.73;;;10.63;;
19087;SDS011;9676;50.916;13.352;2023-04-30T03:23:06;12.00;;;10.90;;
19087;SDS011;9676;50.916;13.352;2023-04-30T03:25:55;11.77;;;10.67;;
19087;SDS011;9676;50.916;13.352;2023-04-30T03:28:46;12.40;;;11.20;;
19087;SDS011;9676;50.916;13.352;2023-04-30T03:31:35;11.73;;;10.63;;
19087;SDS011;9676;50.916;13.352;2023-04-30T03:34:25;11.63;;;10.53;;
19087;SDS011;9676;50.916;13.352;2023-04-30T03:37:14;11.73;;;10.73;;
19087;SDS011;9676;50.916;13.352;2023-04-30T03:40:04;12.27;;;10.97;;
19087;SDS011;9676;50.916;13.352;2023-04-30T03:42:55;12.13;;;11.03;;
19087;SDS011;9676;50.916;13.352;2023-04-30T03:45:46;11.80;;;10.70;;
19087;SDS011;9676;50.916;13.352;2023-04-30T03:48:35;11.80;;;10.70;;
19087;SDS011;9676;50.916;13.352;2023-04-30T03:51:25;12.00;;;10.80;;
19087;SDS011;9676;50.916;13.352;2023-04-30T03:54:14;11.83;;;10.73;;
19087;SDS011;9676;50.916;13.352;2023-04-30T03:57:04;11.47;;;10.47;;
19087;SDS011;9676;50.916;13.352;2023-04-30T03:59:54;11.50;;;10.40;;
19087;SDS011;9676;50.916;13.352;2023-04-30T04:02:45;11.77;;;10.57;;
19087;SDS011;9676;50.916;13.352;2023-04-30T04:05:35;11.27;;;10.17;;
19087;SDS011;9676;50.916;13.352;2023-04-30T04:08:24;11.60;;;10.40;;
19087;SDS011;9676;50.916;13.352;2023-04-30T04:11:13;11.37;;;10.37;;
19087;SDS011;9676;50.916;13.352;2023-04-30T04:14:03;11.70;;;10.60;;
19087;SDS011;9676;50.916;13.352;2023-04-30T04:16:52;10.77;;;9.87;;
19087;SDS011;9676;50.916;13.352;2023-04-30T04:19:43;11.20;;;10.20;;
19087;SDS011;9676;50.916;13.352;2023-04-30T04:22:33;10.80;;;9.90;;
19087;SDS011;9676;50.916;13.352;2023-04-30T04:25:23;11.10;;;10.10;;
19087;SDS011;9676;50.916;13.352;2023-04-30T04:28:13;11.53;;;10.43;;
19087;SDS011;9676;50.916;13.352;2023-04-30T04:31:02;11.00;;;10.10;;
19087;SDS011;9676;50.916;13.352;2023-04-30T04:33:52;11.40;;;10.30;;
19087;SDS011;9676;50.916;13.352;2023-04-30T04:36:46;11.00;;;10.00;;
19087;SDS011;9676;50.916;13.352;2023-04-30T04:39:35;11.90;;;10.30;;
19087;SDS011;9676;50.916;13.352;2023-04-30T04:42:25;11.00;;;10.00;;
19087;SDS011;9676;50.916;13.352;2023-04-30T04:45:14;11.00;;;10.10;;
19087;SDS011;9676;50.916;13.352;2023-04-30T04:48:04;11.00;;;10.00;;
19087;SDS011;9676;50.916;13.352;2023-04-30T04:50:54;11.00;;;10.00;;
19087;SDS011;9676;50.916;13.352;2023-04-30T04:53:44;10.80;;;9.80;;
19087;SDS011;9676;50.916;13.352;2023-04-30T04:56:34;10.83;;;9.87;;
19087;SDS011;9676;50.916;13.352;2023-04-30T04:59:23;10.77;;;9.87;;
19087;SDS011;9676;50.916;13.352;2023-04-30T05:02:14;10.87;;;9.93;;
19087;SDS011;9676;50.916;13.352;2023-04-30T05:05:03;10.60;;;9.63;;
19087;SDS011;9676;50.916;13.352;2023-04-30T05:07:54;10.47;;;9.57;;
19087;SDS011;9676;50.916;13.352;2023-04-30T05:10:44;11.20;;;10.07;;
19087;SDS011;9676;50.916;13.352;2023-04-30T05:13:34;10.77;;;9.87;;
19087;SDS011;9676;50.916;13.352;2023-04-30T05:16:24;10.50;;;9.60;;
19087;SDS011;9676;50.916;13.352;2023-04-30T05:19:13;10.33;;;9.47;;
19087;SDS011;9676;50.916;13.352;2023-04-30T05:22:03;10.27;;;9.47;;
19087;SDS011;9676;50.916;13.352;2023-04-30T05:24:52;10.60;;;9.70;;
19087;SDS011;9676;50.916;13.352;2023-04-30T05:27:43;10.70;;;9.63;;
19087;SDS011;9676;50.916;13.352;2023-04-30T05:30:32;10.53;;;9.73;;
19087;SDS011;9676;50.916;13.352;2023-04-30T05:33:22;11.10;;;10.10;;
19087;SDS011;9676;50.916;13.352;2023-04-30T05:36:12;10.70;;;9.73;;
19087;SDS011;9676;50.916;13.352;2023-04-30T05:39:02;10.67;;;9.70;;
19087;SDS011;9676;50.916;13.352;2023-04-30T05:41:51;10.30;;;9.40;;
19087;SDS011;9676;50.916;13.352;2023-04-30T05:44:42;10.87;;;9.97;;
19087;SDS011;9676;50.916;13.352;2023-04-30T05:47:31;10.60;;;9.60;;
19087;SDS011;9676;50.916;13.352;2023-04-30T05:50:21;10.70;;;9.60;;
19087;SDS011;9676;50.916;13.352;2023-04-30T05:53:10;11.30;;;9.80;;
19087;SDS011;9676;50.916;13.352;2023-04-30T05:56:00;11.43;;;10.33;;
19087;SDS011;9676;50.916;13.352;2023-04-30T05:58:50;10.97;;;9.97;;
19087;SDS011;9676;50.916;13.352;2023-04-30T06:01:41;11.33;;;10.20;;
19087;SDS011;9676;50.916;13.352;2023-04-30T06:04:30;10.90;;;9.80;;
19087;SDS011;9676;50.916;13.352;2023-04-30T06:07:20;11.00;;;9.90;;
19087;SDS011;9676;50.916;13.352;2023-04-30T06:10:09;11.03;;;10.00;;
19087;SDS011;9676;50.916;13.352;2023-04-30T06:12:59;10.87;;;9.87;;
19087;SDS011;9676;50.916;13.352;2023-04-30T06:15:48;11.10;;;10.00;;
19087;SDS011;9676;50.916;13.352;2023-04-30T06:18:39;10.80;;;9.80;;
19087;SDS011;9676;50.916;13.352;2023-04-30T06:21:28;10.50;;;9.60;;
19087;SDS011;9676;50.916;13.352;2023-04-30T06:24:18;10.70;;;9.80;;
19087;SDS011;9676;50.916;13.352;2023-04-30T06:27:07;11.17;;;10.17;;
19087;SDS011;9676;50.916;13.352;2023-04-30T06:29:56;10.30;;;9.40;;
19087;SDS011;9676;50.916;13.352;2023-04-30T06:32:47;10.50;;;9.60;;
19087;SDS011;9676;50.916;13.352;2023-04-30T06:35:38;10.70;;;9.60;;
19087;SDS011;9676;50.916;13.352;2023-04-30T06:38:28;11.57;;;10.50;;
19087;SDS011;9676;50.916;13.352;2023-04-30T06:41:18;11.00;;;10.00;;
19087;SDS011;9676;50.916;13.352;2023-04-30T06:44:07;10.40;;;9.50;;
19087;SDS011;9676;50.916;13.352;2023-04-30T06:46:57;10.70;;;9.80;;
19087;SDS011;9676;50.916;13.352;2023-04-30T06:49:46;10.87;;;9.90;;
19087;SDS011;9676;50.916;13.352;2023-04-30T06:52:37;10.90;;;9.80;;
19087;SDS011;9676;50.916;13.352;2023-04-30T06:55:26;10.80;;;9.90;;
19087;SDS011;9676;50.916;13.352;2023-04-30T06:58:16;10.80;;;9.80;;
19087;SDS011;9676;50.916;13.352;2023-04-30T07:01:06;10.57;;;9.67;;
19087;SDS011;9676;50.916;13.352;2023-04-30T07:03:55;11.10;;;10.00;;
19087;SDS011;9676;50.916;13.352;2023-04-30T07:06:45;11.30;;;10.20;;
19087;SDS011;9676;50.916;13.352;2023-04-30T07:09:36;11.57;;;9.87;;
19087;SDS011;9676;50.916;13.352;2023-04-30T07:12:25;10.47;;;9.57;;
19087;SDS011;9676;50.916;13.352;2023-04-30T07:15:14;10.47;;;9.60;;
19087;SDS011;9676;50.916;13.352;2023-04-30T07:18:04;10.83;;;9.90;;
19087;SDS011;9676;50.916;13.352;2023-04-30T07:20:53;10.87;;;9.87;;
19087;SDS011;9676;50.916;13.352;2023-04-30T07:23:43;10.60;;;9.70;;
19087;SDS011;9676;50.916;13.352;2023-04-30T07:26:33;10.70;;;9.70;;
19087;SDS011;9676;50.916;13.352;2023-04-30T07:29:23;10.73;;;9.80;;
19087;SDS011;9676;50.916;13.352;2023-04-30T07:32:13;10.80;;;9.80;;
19087;SDS011;9676;50.916;13.352;2023-04-30T07:35:02;10.63;;;9.73;;
19087;SDS011;9676;50.916;13.352;2023-04-30T07:37:52;12.13;;;10.37;;
19087;SDS011;9676;50.916;13.352;2023-04-30T07:40:42;10.50;;;9.60;;
19087;SDS011;9676;50.916;13.352;2023-04-30T07:43:33;10.93;;;9.90;;
19087;SDS011;9676;50.916;13.352;2023-04-30T07:46:23;10.53;;;9.53;;
19087;SDS011;9676;50.916;13.352;2023-04-30T07:49:13;10.70;;;9.70;;
19087;SDS011;9676;50.916;13.352;2023-04-30T07:52:02;11.37;;;10.00;;
19087;SDS011;9676;50.916;13.352;2023-04-30T07:54:52;10.97;;;9.87;;
19087;SDS011;9676;50.916;13.352;2023-04-30T07:57:41;10.80;;;9.80;;
19087;SDS011;9676;50.916;13.352;2023-04-30T08:00:32;10.73;;;9.70;;
19087;SDS011;9676;50.916;13.352;2023-04-30T08:03:21;10.80;;;9.73;;
19087;SDS011;9676;50.916;13.352;2023-04-30T08:06:11;10.80;;;9.80;;
19087;SDS011;9676;50.916;13.352;2023-04-30T08:09:00;10.70;;;9.70;;
19087;SDS011;9676;50.916;13.352;2023-04-30T08:11:50;10.97;;;9.97;;
19087;SDS011;9676;50.916;13.352;2023-04-30T08:14:40;11.10;;;10.00;;
19087;SDS011;9676;50.916;13.352;2023-04-30T08:17:31;11.30;;;9.83;;
19087;SDS011;9676;50.916;13.352;2023-04-30T08:20:21;11.53;;;10.40;;
19087;SDS011;9676;50.916;13.352;2023-04-30T08:23:10;10.97;;;9.97;;
19087;SDS011;9676;50.916;13.352;2023-04-30T08:26:00;10.50;;;9.50;;
19087;SDS011;9676;50.916;13.352;2023-04-30T08:28:49;10.67;;;9.70;;
19087;SDS011;9676;50.916;13.352;2023-04-30T08:31:38;11.80;;;10.00;;
19087;SDS011;9676;50.916;13.352;2023-04-30T08:34:30;10.90;;;9.80;;
19087;SDS011;9676;50.916;13.352;2023-04-30T08:37:20;11.03;;;9.83;;
19087;SDS011;9676;50.916;13.352;2023-04-30T08:40:09;11.10;;;10.10;;
19087;SDS011;9676;50.916;13.352;2023-04-30T08:43:03;10.50;;;9.60;;
19087;SDS011;9676;50.916;13.352;2023-04-30T08:45:54;10.90;;;9.83;;
19087;SDS011;9676;50.916;13.352;2023-04-30T08:48:45;11.07;;;9.97;;
19087;SDS011;9676;50.916;13.352;2023-04-30T08:51:36;11.10;;;10.00;;
19087;SDS011;9676;50.916;13.352;2023-04-30T08:54:26;10.60;;;9.60;;
19087;SDS011;9676;50.916;13.352;2023-04-30T08:57:19;11.30;;;10.20;;
19087;SDS011;9676;50.916;13.352;2023-04-30T09:00:08;11.47;;;10.17;;
19087;SDS011;9676;50.916;13.352;2023-04-30T09:02:59;10.67;;;9.73;;
19087;SDS011;9676;50.916;13.352;2023-04-30T09:05:49;10.93;;;9.83;;
19087;SDS011;9676;50.916;13.352;2023-04-30T09:08:43;10.20;;;9.20;;
19087;SDS011;9676;50.916;13.352;2023-04-30T09:11:35;10.60;;;9.37;;
19087;SDS011;9676;50.916;13.352;2023-04-30T09:14:24;10.53;;;9.17;;
19087;SDS011;9676;50.916;13.352;2023-04-30T09:17:17;10.37;;;9.27;;
19087;SDS011;9676;50.916;13.352;2023-04-30T09:20:10;10.00;;;8.93;;
19087;SDS011;9676;50.916;13.352;2023-04-30T09:23:04;10.00;;;9.10;;
19087;SDS011;9676;50.916;13.352;2023-04-30T09:25:56;10.00;;;9.00;;
19087;SDS011;9676;50.916;13.352;2023-04-30T09:28:53;10.27;;;9.27;;
19087;SDS011;9676;50.916;13.352;2023-04-30T09:31:45;10.80;;;9.23;;
19087;SDS011;9676;50.916;13.352;2023-04-30T09:34:35;9.87;;;8.93;;
19087;SDS011;9676;50.916;13.352;2023-04-30T09:37:33;10.13;;;9.20;;
19087;SDS011;9676;50.916;13.352;2023-04-30T09:40:31;9.80;;;8.90;;
19087;SDS011;9676;50.916;13.352;2023-04-30T09:43:24;10.53;;;9.43;;
19087;SDS011;9676;50.916;13.352;2023-04-30T09:46:14;9.97;;;8.97;;
19087;SDS011;9676;50.916;13.352;2023-04-30T09:49:06;9.50;;;8.60;;
19087;SDS011;9676;50.916;13.352;2023-04-30T09:51:59;10.63;;;9.40;;
19087;SDS011;9676;50.916;13.352;2023-04-30T09:54:49;10.40;;;9.40;;
19087;SDS011;9676;50.916;13.352;2023-04-30T09:57:38;10.30;;;9.20;;
19087;SDS011;9676;50.916;13.352;2023-04-30T10:00:29;9.87;;;8.93;;
19087;SDS011;9676;50.916;13.352;2023-04-30T10:03:20;10.00;;;9.00;;
19087;SDS011;9676;50.916;13.352;2023-04-30T10:06:12;9.80;;;8.80;;
19087;SDS011;9676;50.916;13.352;2023-04-30T10:09:03;10.53;;;9.30;;
19087;SDS011;9676;50.916;13.352;2023-04-30T10:11:54;10.03;;;9.03;;
19087;SDS011;9676;50.916;13.352;2023-04-30T10:14:46;10.20;;;8.80;;
19087;SDS011;9676;50.916;13.352;2023-04-30T10:17:41;9.30;;;8.40;;
19087;SDS011;9676;50.916;13.352;2023-04-30T10:20:36;9.40;;;8.50;;
19087;SDS011;9676;50.916;13.352;2023-04-30T10:23:28;9.13;;;8.23;;
19087;SDS011;9676;50.916;13.352;2023-04-30T10:26:17;9.20;;;8.30;;
19087;SDS011;9676;50.916;13.352;2023-04-30T10:29:08;9.63;;;8.30;;
19087;SDS011;9676;50.916;13.352;2023-04-30T10:31:58;9.07;;;8.20;;
19087;SDS011;9676;50.916;13.352;2023-04-30T10:34:51;8.80;;;8.00;;
19087;SDS011;9676;50.916;13.352;2023-04-30T10:37:53;8.53;;;7.83;;
19087;SDS011;9676;50.916;13.352;2023-04-30T10:40:50;9.10;;;8.17;;
19087;SDS011;9676;50.916;13.352;2023-04-30T10:43:43;8.40;;;7.70;;
19087;SDS011;9676;50.916;13.352;2023-04-30T10:46:34;8.90;;;7.88;;
19087;SDS011;9676;50.916;13.352;2023-04-30T10:49:24;8.73;;;7.80;;
19087;SDS011;9676;50.916;13.352;2023-04-30T10:52:15;8.85;;;8.10;;
19087;SDS011;9676;50.916;13.352;2023-04-30T10:55:16;8.45;;;7.80;;
19087;SDS011;9676;50.916;13.352;2023-04-30T10:58:13;9.05;;;8.20;;
19087;SDS011;9676;50.916;13.352;2023-04-30T11:01:13;10.15;;;8.27;;
19087;SDS011;9676;50.916;13.352;2023-04-30T11:04:04;8.50;;;7.80;;
19087;SDS011;9676;50.916;13.352;2023-04-30T11:07:00;9.17;;;8.30;;
19087;SDS011;9676;50.916;13.352;2023-04-30T11:09:57;8.97;;;8.17;;
19087;SDS011;9676;50.916;13.352;2023-04-30T11:12:48;8.73;;;8.00;;
19087;SDS011;9676;50.916;13.352;2023-04-30T11:15:39;8.40;;;7.70;;
19087;SDS011;9676;50.916;13.352;2023-04-30T11:18:31;8.77;;;8.07;;
19087;SDS011;9676;50.916;13.352;2023-04-30T11:21:20;8.83;;;8.10;;
19087;SDS011;9676;50.916;13.352;2023-04-30T11:24:10;10.40;;;9.10;;
19087;SDS011;9676;50.916;13.352;2023-04-30T11:27:05;9.43;;;8.63;;
19087;SDS011;9676;50.916;13.352;2023-04-30T11:29:55;9.70;;;8.80;;
19087;SDS011;9676;50.916;13.352;2023-04-30T11:32:46;9.80;;;8.80;;
19087;SDS011;9676;50.916;13.352;2023-04-30T11:35:37;9.90;;;9.00;;
19087;SDS011;9676;50.916;13.352;2023-04-30T11:38:27;10.53;;;9.53;;
19087;SDS011;9676;50.916;13.352;2023-04-30T11:41:18;10.67;;;8.93;;
19087;SDS011;9676;50.916;13.352;2023-04-30T11:44:24;10.07;;;9.10;;
19087;SDS011;9676;50.916;13.352;2023-04-30T11:47:14;10.00;;;9.00;;
19087;SDS011;9676;50.916;13.352;2023-04-30T11:50:03;9.90;;;9.00;;
19087;SDS011;9676;50.916;13.352;2023-04-30T11:52:55;10.20;;;9.27;;
19087;SDS011;9676;50.916;13.352;2023-04-30T11:55:48;10.90;;;9.80;;
19087;SDS011;9676;50.916;13.352;2023-04-30T11:58:39;10.60;;;9.00;;
19087;SDS011;9676;50.916;13.352;2023-04-30T12:01:29;10.27;;;9.27;;
19087;SDS011;9676;50.916;13.352;2023-04-30T12:04:19;11.00;;;9.40;;
19087;SDS011;9676;50.916;13.352;2023-04-30T12:07:08;10.67;;;9.50;;
19087;SDS011;9676;50.916;13.352;2023-04-30T12:09:58;10.40;;;9.40;;
19087;SDS011;9676;50.916;13.352;2023-04-30T12:12:48;10.40;;;9.40;;
19087;SDS011;9676;50.916;13.352;2023-04-30T12:15:39;10.47;;;9.47;;
19087;SDS011;9676;50.916;13.352;2023-04-30T12:18:30;9.93;;;9.07;;
19087;SDS011;9676;50.916;13.352;2023-04-30T12:21:21;10.50;;;9.17;;
19087;SDS011;9676;50.916;13.352;2023-04-30T12:24:10;10.60;;;9.50;;
19087;SDS011;9676;50.916;13.352;2023-04-30T12:27:00;9.97;;;9.13;;
19087;SDS011;9676;50.916;13.352;2023-04-30T12:29:49;10.20;;;9.20;;
19087;SDS011;9676;50.916;13.352;2023-04-30T12:32:41;10.40;;;9.40;;
19087;SDS011;9676;50.916;13.352;2023-04-30T12:35:34;10.27;;;9.30;;
19087;SDS011;9676;50.916;13.352;2023-04-30T12:38:23;10.50;;;9.50;;
19087;SDS011;9676;50.916;13.352;2023-04-30T12:41:13;10.33;;;9.33;;
19087;SDS011;9676;50.916;13.352;2023-04-30T12:44:16;10.27;;;9.30;;
19087;SDS011;9676;50.916;13.352;2023-04-30T12:47:08;9.80;;;9.00;;
19087;SDS011;9676;50.916;13.352;2023-04-30T12:49:58;10.50;;;9.50;;
19087;SDS011;9676;50.916;13.352;2023-04-30T12:52:48;10.60;;;9.70;;
19087;SDS011;9676;50.916;13.352;2023-04-30T12:55:38;10.77;;;9.67;;
19087;SDS011;9676;50.916;13.352;2023-04-30T12:58:29;10.67;;;9.30;;
19087;SDS011;9676;50.916;13.352;2023-04-30T13:01:19;13.40;;;9.40;;
19087;SDS011;9676;50.916;13.352;2023-04-30T13:04:10;10.57;;;9.50;;
19087;SDS011;9676;50.916;13.352;2023-04-30T13:07:00;9.80;;;9.00;;
19087;SDS011;9676;50.916;13.352;2023-04-30T13:09:51;9.73;;;8.93;;
19087;SDS011;9676;50.916;13.352;2023-04-30T13:12:40;10.53;;;9.63;;
19087;SDS011;9676;50.916;13.352;2023-04-30T13:15:30;10.47;;;9.47;;
19087;SDS011;9676;50.916;13.352;2023-04-30T13:18:19;10.30;;;9.40;;
19087;SDS011;9676;50.916;13.352;2023-04-30T13:21:08;10.40;;;9.50;;
19087;SDS011;9676;50.916;13.352;2023-04-30T13:23:59;10.37;;;9.43;;
19087;SDS011;9676;50.916;13.352;2023-04-30T13:26:49;10.20;;;9.30;;
19087;SDS011;9676;50.916;13.352;2023-04-30T13:29:39;9.93;;;8.93;;
19087;SDS011;9676;50.916;13.352;2023-04-30T13:32:28;10.40;;;9.30;;
19087;SDS011;9676;50.916;13.352;2023-04-30T13:35:18;10.07;;;9.17;;
19087;SDS011;9676;50.916;13.352;2023-04-30T13:38:07;10.40;;;9.40;;
19087;SDS011;9676;50.916;13.352;2023-04-30T13:40:57;10.20;;;9.30;;
19087;SDS011;9676;50.916;13.352;2023-04-30T13:43:47;11.47;;;9.60;;
19087;SDS011;9676;50.916;13.352;2023-04-30T13:46:37;10.13;;;9.23;;
19087;SDS011;9676;50.916;13.352;2023-04-30T13:49:26;10.40;;;9.40;;
19087;SDS011;9676;50.916;13.352;2023-04-30T13:52:15;10.13;;;9.23;;
19087;SDS011;9676;50.916;13.352;2023-04-30T13:55:05;10.37;;;9.37;;
19087;SDS011;9676;50.916;13.352;2023-04-30T13:57:56;10.90;;;8.90;;
19087;SDS011;9676;50.916;13.352;2023-04-30T14:00:47;14.43;;;10.07;;
19087;SDS011;9676;50.916;13.352;2023-04-30T14:03:37;9.87;;;9.07;;
19087;SDS011;9676;50.916;13.352;2023-04-30T14:06:27;9.90;;;9.00;;
19087;SDS011;9676;50.916;13.352;2023-04-30T14:09:16;10.27;;;9.27;;
19087;SDS011;9676;50.916;13.352;2023-04-30T14:12:06;10.37;;;9.40;;
19087;SDS011;9676;50.916;13.352;2023-04-30T14:14:56;9.80;;;9.00;;
19087;SDS011;9676;50.916;13.352;2023-04-30T14:17:46;10.03;;;9.23;;
19087;SDS011;9676;50.916;13.352;2023-04-30T14:20:36;9.93;;;9.00;;
19087;SDS011;9676;50.916;13.352;2023-04-30T14:23:26;10.10;;;9.20;;
19087;SDS011;9676;50.916;13.352;2023-04-30T14:26:16;9.63;;;8.83;;
19087;SDS011;9676;50.916;13.352;2023-04-30T14:29:05;9.80;;;8.90;;
19087;SDS011;9676;50.916;13.352;2023-04-30T14:31:55;10.40;;;9.20;;
19087;SDS011;9676;50.916;13.352;2023-04-30T14:34:46;10.13;;;9.23;;
19087;SDS011;9676;50.916;13.352;2023-04-30T14:37:35;10.13;;;9.23;;
19087;SDS011;9676;50.916;13.352;2023-04-30T14:40:24;10.00;;;9.07;;
19087;SDS011;9676;50.916;13.352;2023-04-30T14:43:14;9.80;;;9.00;;
19087;SDS011;9676;50.916;13.352;2023-04-30T14:46:03;9.80;;;9.00;;
19087;SDS011;9676;50.916;13.352;2023-04-30T14:48:53;9.80;;;9.00;;
19087;SDS011;9676;50.916;13.352;2023-04-30T14:51:44;9.80;;;9.00;;
19087;SDS011;9676;50.916;13.352;2023-04-30T14:54:33;10.13;;;9.20;;
19087;SDS011;9676;50.916;13.352;2023-04-30T14:57:23;10.20;;;9.30;;
19087;SDS011;9676;50.916;13.352;2023-04-30T15:00:15;11.70;;;9.10;;
19087;SDS011;9676;50.916;13.352;2023-04-30T15:03:04;10.33;;;9.30;;
19087;SDS011;9676;50.916;13.352;2023-04-30T15:05:54;10.47;;;9.47;;
19087;SDS011;9676;50.916;13.352;2023-04-30T15:08:45;10.27;;;9.30;;
19087;SDS011;9676;50.916;13.352;2023-04-30T15:11:35;10.07;;;9.17;;
19087;SDS011;9676;50.916;13.352;2023-04-30T15:14:24;9.90;;;9.10;;
19087;SDS011;9676;50.916;13.352;2023-04-30T15:17:14;9.83;;;9.03;;
19087;SDS011;9676;50.916;13.352;2023-04-30T15:20:03;9.93;;;9.03;;
19087;SDS011;9676;50.916;13.352;2023-04-30T15:22:55;9.73;;;8.93;;
19087;SDS011;9676;50.916;13.352;2023-04-30T15:25:45;10.23;;;9.23;;
19087;SDS011;9676;50.916;13.352;2023-04-30T15:28:35;10.07;;;9.03;;
19087;SDS011;9676;50.916;13.352;2023-04-30T15:31:24;9.77;;;8.93;;
19087;SDS011;9676;50.916;13.352;2023-04-30T15:34:14;10.77;;;9.77;;
19087;SDS011;9676;50.916;13.352;2023-04-30T15:37:03;9.80;;;9.00;;
19087;SDS011;9676;50.916;13.352;2023-04-30T15:39:53;10.20;;;9.20;;
19087;SDS011;9676;50.916;13.352;2023-04-30T15:42:44;10.30;;;9.40;;
19087;SDS011;9676;50.916;13.352;2023-04-30T15:45:34;10.60;;;9.53;;
19087;SDS011;9676;50.916;13.352;2023-04-30T15:48:23;10.27;;;9.27;;
19087;SDS011;9676;50.916;13.352;2023-04-30T15:51:13;10.40;;;9.50;;
19087;SDS011;9676;50.916;13.352;2023-04-30T15:54:02;10.23;;;9.20;;
19087;SDS011;9676;50.916;13.352;2023-04-30T15:56:53;10.93;;;9.60;;
19087;SDS011;9676;50.916;13.352;2023-04-30T15:59:44;9.87;;;9.00;;
19087;SDS011;9676;50.916;13.352;2023-04-30T16:02:33;10.47;;;9.50;;
19087;SDS011;9676;50.916;13.352;2023-04-30T16:05:23;10.70;;;9.70;;
19087;SDS011;9676;50.916;13.352;2023-04-30T16:08:13;11.27;;;10.17;;
19087;SDS011;9676;50.916;13.352;2023-04-30T16:11:03;11.40;;;10.30;;
19087;SDS011;9676;50.916;13.352;2023-04-30T16:13:53;13.90;;;10.73;;
19087;SDS011;9676;50.916;13.352;2023-04-30T16:16:44;15.30;;;12.03;;
19087;SDS011;9676;50.916;13.352;2023-04-30T16:19:34;14.30;;;11.60;;
19087;SDS011;9676;50.916;13.352;2023-04-30T16:22:23;13.27;;;11.43;;
19087;SDS011;9676;50.916;13.352;2023-04-30T16:25:13;13.23;;;11.23;;
19087;SDS011;9676;50.916;13.352;2023-04-30T16:28:02;12.50;;;11.13;;
19087;SDS011;9676;50.916;13.352;2023-04-30T16:30:52;11.10;;;9.90;;
19087;SDS011;9676;50.916;13.352;2023-04-30T16:33:43;11.60;;;10.40;;
19087;SDS011;9676;50.916;13.352;2023-04-30T16:36:33;10.40;;;9.43;;
19087;SDS011;9676;50.916;13.352;2023-04-30T16:39:22;11.10;;;9.60;;
19087;SDS011;9676;50.916;13.352;2023-04-30T16:42:11;10.93;;;9.83;;
19087;SDS011;9676;50.916;13.352;2023-04-30T16:45:01;10.30;;;9.40;;
19087;SDS011;9676;50.916;13.352;2023-04-30T16:47:50;10.13;;;9.23;;